sensor_id;sensor_type;location;lat;lon;timestamp;P1;durP1;ratioP1;P2;durP2;ratioP2
31004;SDS011;17676;52.254;4.490;2024-02-21T00:01:21;31.05;;;2.85;;
31004;SDS011;17676;52.254;4.490;2024-02-21T00:03:51;29.10;;;3.53;;
31004;SDS011;17676;52.254;4.490;2024-02-21T00:06:18;36.05;;;3.15;;
31004;SDS011;17676;52.254;4.490;2024-02-21T00:08:45;26.05;;;2.92;;
31004;SDS011;17676;52.254;4.490;2024-02-21T00:11:11;23.05;;;3.13;;
31004;SDS011;17676;52.254;4.490;2024-02-21T00:13:38;25.33;;;3.45;;
31004;SDS011;17676;52.254;4.490;2024-02-21T00:16:05;25.42;;;3.10;;
31004;SDS011;17676;52.254;4.490;2024-02-21T00:18:32;24.90;;;3.70;;
31004;SDS011;17676;52.254;4.490;2024-02-21T00:20:58;27.88;;;3.13;;
31004;SDS011;17676;52.254;4.490;2024-02-21T00:23:28;20.23;;;2.80;;
31004;SDS011;17676;52.254;4.490;2024-02-21T00:25:54;23.08;;;2.90;;
31004;SDS011;17676;52.254;4.490;2024-02-21T00:28:21;27.10;;;3.30;;
31004;SDS011;17676;52.254;4.490;2024-02-21T00:30:48;22.92;;;3.05;;
31004;SDS011;17676;52.254;4.490;2024-02-21T00:33:16;28.80;;;3.17;;
31004;SDS011;17676;52.254;4.490;2024-02-21T00:35:43;28.05;;;3.38;;
31004;SDS011;17676;52.254;4.490;2024-02-21T00:38:10;37.72;;;3.38;;
31004;SDS011;17676;52.254;4.490;2024-02-21T00:40:37;27.10;;;3.08;;
31004;SDS011;17676;52.254;4.490;2024-02-21T00:43:04;25.33;;;2.75;;
31004;SDS011;17676;52.254;4.490;2024-02-21T00:45:30;26.23;;;3.92;;
31004;SDS011;17676;52.254;4.490;2024-02-21T00:47:57;24.77;;;3.75;;
31004;SDS011;17676;52.254;4.490;2024-02-21T00:50:24;27.90;;;3.22;;
31004;SDS011;17676;52.254;4.490;2024-02-21T00:52:50;27.92;;;3.28;;
31004;SDS011;17676;52.254;4.490;2024-02-21T00:55:17;25.98;;;3.40;;
31004;SDS011;17676;52.254;4.490;2024-02-21T00:57:45;38.53;;;4.75;;
31004;SDS011;17676;52.254;4.490;2024-02-21T01:00:12;28.40;;;2.30;;
31004;SDS011;17676;52.254;4.490;2024-02-21T01:02:38;33.63;;;3.92;;
31004;SDS011;17676;52.254;4.490;2024-02-21T01:05:06;30.20;;;3.83;;
31004;SDS011;17676;52.254;4.490;2024-02-21T01:07:33;31.02;;;4.10;;
31004;SDS011;17676;52.254;4.490;2024-02-21T01:10:00;28.73;;;3.92;;
31004;SDS011;17676;52.254;4.490;2024-02-21T01:12:27;33.47;;;3.53;;
31004;SDS011;17676;52.254;4.490;2024-02-21T01:14:53;30.60;;;3.28;;
31004;SDS011;17676;52.254;4.490;2024-02-21T01:17:20;35.53;;;4.15;;
31004;SDS011;17676;52.254;4.490;2024-02-21T01:19:47;25.88;;;3.60;;
31004;SDS011;17676;52.254;4.490;2024-02-21T01:22:14;28.20;;;2.70;;
31004;SDS011;17676;52.254;4.490;2024-02-21T01:24:42;31.42;;;3.60;;
31004;SDS011;17676;52.254;4.490;2024-02-21T01:27:08;28.67;;;3.17;;
31004;SDS011;17676;52.254;4.490;2024-02-21T01:29:35;30.27;;;3.72;;
31004;SDS011;17676;52.254;4.490;2024-02-21T01:32:02;25.42;;;3.70;;
31004;SDS011;17676;52.254;4.490;2024-02-21T01:34:29;30.50;;;3.63;;
31004;SDS011;17676;52.254;4.490;2024-02-21T01:36:58;26.05;;;3.33;;
31004;SDS011;17676;52.254;4.490;2024-02-21T01:39:25;26.05;;;2.67;;
31004;SDS011;17676;52.254;4.490;2024-02-21T01:41:53;26.17;;;3.65;;
31004;SDS011;17676;52.254;4.490;2024-02-21T01:44:19;37.78;;;4.25;;
31004;SDS011;17676;52.254;4.490;2024-02-21T01:46:46;44.58;;;4.63;;
31004;SDS011;17676;52.254;4.490;2024-02-21T01:49:13;25.00;;;3.65;;
31004;SDS011;17676;52.254;4.490;2024-02-21T01:51:40;24.00;;;3.25;;
31004;SDS011;17676;52.254;4.490;2024-02-21T01:54:07;26.98;;;3.67;;
31004;SDS011;17676;52.254;4.490;2024-02-21T01:56:34;32.35;;;3.65;;
31004;SDS011;17676;52.254;4.490;2024-02-21T01:59:01;30.33;;;3.15;;
31004;SDS011;17676;52.254;4.490;2024-02-21T02:01:29;32.67;;;3.88;;
31004;SDS011;17676;52.254;4.490;2024-02-21T02:03:56;29.00;;;3.35;;
31004;SDS011;17676;52.254;4.490;2024-02-21T02:06:25;26.40;;;4.03;;
31004;SDS011;17676;52.254;4.490;2024-02-21T02:08:52;27.98;;;3.67;;
31004;SDS011;17676;52.254;4.490;2024-02-21T02:11:20;26.38;;;3.33;;
31004;SDS011;17676;52.254;4.490;2024-02-21T02:13:46;26.70;;;2.90;;
31004;SDS011;17676;52.254;4.490;2024-02-21T02:16:13;38.38;;;4.55;;
31004;SDS011;17676;52.254;4.490;2024-02-21T02:18:39;32.35;;;4.43;;
31004;SDS011;17676;52.254;4.490;2024-02-21T02:21:11;32.50;;;3.28;;
31004;SDS011;17676;52.254;4.490;2024-02-21T02:23:47;34.55;;;3.88;;
31004;SDS011;17676;52.254;4.490;2024-02-21T02:26:14;28.33;;;3.88;;
31004;SDS011;17676;52.254;4.490;2024-02-21T02:28:41;29.10;;;2.92;;
31004;SDS011;17676;52.254;4.490;2024-02-21T02:31:08;29.95;;;3.00;;
31004;SDS011;17676;52.254;4.490;2024-02-21T02:33:34;32.10;;;3.45;;
31004;SDS011;17676;52.254;4.490;2024-02-21T02:36:01;24.45;;;3.38;;
31004;SDS011;17676;52.254;4.490;2024-02-21T02:38:28;29.27;;;3.65;;
31004;SDS011;17676;52.254;4.490;2024-02-21T02:40:54;26.90;;;2.63;;
31004;SDS011;17676;52.254;4.490;2024-02-21T02:43:21;25.42;;;2.45;;
31004;SDS011;17676;52.254;4.490;2024-02-21T02:45:48;27.50;;;4.18;;
31004;SDS011;17676;52.254;4.490;2024-02-21T02:48:14;28.33;;;3.53;;
31004;SDS011;17676;52.254;4.490;2024-02-21T02:50:41;31.35;;;3.60;;
31004;SDS011;17676;52.254;4.490;2024-02-21T02:53:08;25.08;;;3.38;;
31004;SDS011;17676;52.254;4.490;2024-02-21T02:55:34;24.88;;;3.53;;
31004;SDS011;17676;52.254;4.490;2024-02-21T02:58:01;31.50;;;4.22;;
31004;SDS011;17676;52.254;4.490;2024-02-21T03:00:29;26.13;;;3.38;;
31004;SDS011;17676;52.254;4.490;2024-02-21T03:02:56;25.77;;;3.10;;
31004;SDS011;17676;52.254;4.490;2024-02-21T03:05:22;26.85;;;2.88;;
31004;SDS011;17676;52.254;4.490;2024-02-21T03:07:49;28.70;;;2.90;;
31004;SDS011;17676;52.254;4.490;2024-02-21T03:10:16;29.60;;;3.83;;
31004;SDS011;17676;52.254;4.490;2024-02-21T03:12:44;24.63;;;4.03;;
31004;SDS011;17676;52.254;4.490;2024-02-21T03:15:11;25.25;;;3.22;;
31004;SDS011;17676;52.254;4.490;2024-02-21T03:17:39;24.90;;;2.95;;
31004;SDS011;17676;52.254;4.490;2024-02-21T03:20:06;27.77;;;3.75;;
31004;SDS011;17676;52.254;4.490;2024-02-21T03:22:38;20.95;;;2.72;;
31004;SDS011;17676;52.254;4.490;2024-02-21T03:25:06;27.15;;;2.85;;
31004;SDS011;17676;52.254;4.490;2024-02-21T03:27:33;29.65;;;2.85;;
31004;SDS011;17676;52.254;4.490;2024-02-21T03:30:00;18.90;;;3.28;;
31004;SDS011;17676;52.254;4.490;2024-02-21T03:32:27;21.63;;;2.97;;
31004;SDS011;17676;52.254;4.490;2024-02-21T03:34:55;32.42;;;3.38;;
31004;SDS011;17676;52.254;4.490;2024-02-21T03:37:22;27.45;;;3.10;;
31004;SDS011;17676;52.254;4.490;2024-02-21T03:39:48;27.70;;;3.33;;
31004;SDS011;17676;52.254;4.490;2024-02-21T03:42:15;31.38;;;3.15;;
31004;SDS011;17676;52.254;4.490;2024-02-21T03:44:41;22.38;;;3.38;;
31004;SDS011;17676;52.254;4.490;2024-02-21T03:47:08;21.02;;;3.13;;
31004;SDS011;17676;52.254;4.490;2024-02-21T03:49:37;21.08;;;2.78;;
31004;SDS011;17676;52.254;4.490;2024-02-21T03:52:04;25.60;;;2.95;;
31004;SDS011;17676;52.254;4.490;2024-02-21T03:54:31;17.00;;;2.70;;
31004;SDS011;17676;52.254;4.490;2024-02-21T03:56:57;23.13;;;2.88;;
31004;SDS011;17676;52.254;4.490;2024-02-21T03:59:24;24.75;;;3.13;;
31004;SDS011;17676;52.254;4.490;2024-02-21T04:01:51;24.27;;;2.70;;
31004;SDS011;17676;52.254;4.490;2024-02-21T04:04:19;20.77;;;2.80;;
31004;SDS011;17676;52.254;4.490;2024-02-21T04:06:49;23.65;;;3.10;;
31004;SDS011;17676;52.254;4.490;2024-02-21T04:09:16;23.63;;;3.25;;
31004;SDS011;17676;52.254;4.490;2024-02-21T04:11:43;20.20;;;3.25;;
31004;SDS011;17676;52.254;4.490;2024-02-21T04:14:10;24.00;;;3.78;;
31004;SDS011;17676;52.254;4.490;2024-02-21T04:16:40;16.60;;;3.53;;
31004;SDS011;17676;52.254;4.490;2024-02-21T04:19:07;24.10;;;4.47;;
31004;SDS011;17676;52.254;4.490;2024-02-21T04:21:34;22.35;;;3.33;;
31004;SDS011;17676;52.254;4.490;2024-02-21T04:24:01;24.40;;;3.92;;
31004;SDS011;17676;52.254;4.490;2024-02-21T04:26:32;16.17;;;3.85;;
31004;SDS011;17676;52.254;4.490;2024-02-21T04:28:59;31.30;;;5.05;;
31004;SDS011;17676;52.254;4.490;2024-02-21T04:31:26;23.65;;;4.32;;
31004;SDS011;17676;52.254;4.490;2024-02-21T04:33:53;24.23;;;4.00;;
31004;SDS011;17676;52.254;4.490;2024-02-21T04:36:19;20.50;;;3.95;;
31004;SDS011;17676;52.254;4.490;2024-02-21T04:38:46;20.10;;;4.07;;
31004;SDS011;17676;52.254;4.490;2024-02-21T04:41:12;23.13;;;4.20;;
31004;SDS011;17676;52.254;4.490;2024-02-21T04:43:39;22.30;;;4.47;;
31004;SDS011;17676;52.254;4.490;2024-02-21T04:46:07;22.67;;;3.92;;
31004;SDS011;17676;52.254;4.490;2024-02-21T04:48:33;25.98;;;4.70;;
31004;SDS011;17676;52.254;4.490;2024-02-21T04:51:00;25.02;;;5.00;;
31004;SDS011;17676;52.254;4.490;2024-02-21T04:53:27;20.27;;;3.70;;
31004;SDS011;17676;52.254;4.490;2024-02-21T04:55:53;23.77;;;4.20;;
31004;SDS011;17676;52.254;4.490;2024-02-21T04:58:20;20.73;;;3.72;;
31004;SDS011;17676;52.254;4.490;2024-02-21T05:00:47;22.52;;;4.00;;
31004;SDS011;17676;52.254;4.490;2024-02-21T05:03:13;17.90;;;4.10;;
31004;SDS011;17676;52.254;4.490;2024-02-21T05:05:40;17.45;;;3.88;;
31004;SDS011;17676;52.254;4.490;2024-02-21T05:08:07;23.05;;;4.13;;
31004;SDS011;17676;52.254;4.490;2024-02-21T05:10:34;15.48;;;4.20;;
31004;SDS011;17676;52.254;4.490;2024-02-21T05:13:00;24.08;;;4.13;;
31004;SDS011;17676;52.254;4.490;2024-02-21T05:15:27;15.98;;;4.18;;
31004;SDS011;17676;52.254;4.490;2024-02-21T05:17:54;21.25;;;3.75;;
31004;SDS011;17676;52.254;4.490;2024-02-21T05:20:20;21.55;;;4.32;;
31004;SDS011;17676;52.254;4.490;2024-02-21T05:22:47;11.88;;;3.45;;
31004;SDS011;17676;52.254;4.490;2024-02-21T05:25:14;12.18;;;3.75;;
31004;SDS011;17676;52.254;4.490;2024-02-21T05:27:41;19.38;;;4.38;;
31004;SDS011;17676;52.254;4.490;2024-02-21T05:30:08;22.42;;;4.10;;
31004;SDS011;17676;52.254;4.490;2024-02-21T05:32:36;15.90;;;4.63;;
31004;SDS011;17676;52.254;4.490;2024-02-21T05:35:03;14.95;;;4.43;;
31004;SDS011;17676;52.254;4.490;2024-02-21T05:37:29;22.15;;;4.90;;
31004;SDS011;17676;52.254;4.490;2024-02-21T05:39:56;10.55;;;4.65;;
31004;SDS011;17676;52.254;4.490;2024-02-21T05:42:23;11.45;;;4.32;;
31004;SDS011;17676;52.254;4.490;2024-02-21T05:44:49;17.30;;;5.07;;
31004;SDS011;17676;52.254;4.490;2024-02-21T05:47:16;18.38;;;4.82;;
31004;SDS011;17676;52.254;4.490;2024-02-21T05:49:43;11.63;;;4.22;;
31004;SDS011;17676;52.254;4.490;2024-02-21T05:52:10;15.57;;;4.75;;
31004;SDS011;17676;52.254;4.490;2024-02-21T05:54:39;15.07;;;4.35;;
31004;SDS011;17676;52.254;4.490;2024-02-21T05:57:07;17.98;;;5.43;;
31004;SDS011;17676;52.254;4.490;2024-02-21T05:59:34;17.05;;;4.80;;
31004;SDS011;17676;52.254;4.490;2024-02-21T06:02:02;13.00;;;4.53;;
31004;SDS011;17676;52.254;4.490;2024-02-21T06:04:30;14.18;;;5.15;;
31004;SDS011;17676;52.254;4.490;2024-02-21T06:06:57;12.65;;;4.35;;
31004;SDS011;17676;52.254;4.490;2024-02-21T06:09:24;11.65;;;4.32;;
31004;SDS011;17676;52.254;4.490;2024-02-21T06:11:51;14.13;;;4.60;;
31004;SDS011;17676;52.254;4.490;2024-02-21T06:14:18;9.82;;;5.18;;
31004;SDS011;17676;52.254;4.490;2024-02-21T06:16:44;16.65;;;6.68;;
31004;SDS011;17676;52.254;4.490;2024-02-21T06:19:13;14.93;;;7.05;;
31004;SDS011;17676;52.254;4.490;2024-02-21T06:21:40;18.80;;;7.53;;
31004;SDS011;17676;52.254;4.490;2024-02-21T06:24:07;17.42;;;8.15;;
31004;SDS011;17676;52.254;4.490;2024-02-21T06:26:33;17.10;;;7.85;;
31004;SDS011;17676;52.254;4.490;2024-02-21T06:29:00;16.77;;;8.40;;
31004;SDS011;17676;52.254;4.490;2024-02-21T06:31:28;15.45;;;7.53;;
31004;SDS011;17676;52.254;4.490;2024-02-21T06:33:55;11.43;;;7.35;;
31004;SDS011;17676;52.254;4.490;2024-02-21T06:36:22;11.27;;;7.55;;
31004;SDS011;17676;52.254;4.490;2024-02-21T06:38:49;12.88;;;8.20;;
31004;SDS011;17676;52.254;4.490;2024-02-21T06:41:16;15.15;;;8.00;;
31004;SDS011;17676;52.254;4.490;2024-02-21T06:43:48;16.88;;;8.15;;
31004;SDS011;17676;52.254;4.490;2024-02-21T06:46:25;18.27;;;8.23;;
31004;SDS011;17676;52.254;4.490;2024-02-21T06:48:56;16.73;;;9.32;;
31004;SDS011;17676;52.254;4.490;2024-02-21T06:51:23;15.40;;;10.30;;
31004;SDS011;17676;52.254;4.490;2024-02-21T06:53:51;13.88;;;9.60;;
31004;SDS011;17676;52.254;4.490;2024-02-21T06:56:18;14.40;;;9.48;;
31004;SDS011;17676;52.254;4.490;2024-02-21T06:58:45;14.70;;;9.45;;
31004;SDS011;17676;52.254;4.490;2024-02-21T07:01:12;12.98;;;10.00;;
31004;SDS011;17676;52.254;4.490;2024-02-21T07:03:39;15.88;;;9.68;;
31004;SDS011;17676;52.254;4.490;2024-02-21T07:06:05;12.90;;;9.82;;
31004;SDS011;17676;52.254;4.490;2024-02-21T07:08:32;13.10;;;10.02;;
31004;SDS011;17676;52.254;4.490;2024-02-21T07:10:59;13.73;;;10.45;;
31004;SDS011;17676;52.254;4.490;2024-02-21T07:13:26;19.67;;;10.95;;
31004;SDS011;17676;52.254;4.490;2024-02-21T07:15:53;16.63;;;10.43;;
31004;SDS011;17676;52.254;4.490;2024-02-21T07:18:19;20.67;;;11.40;;
31004;SDS011;17676;52.254;4.490;2024-02-21T07:20:46;14.27;;;10.95;;
31004;SDS011;17676;52.254;4.490;2024-02-21T07:23:13;16.05;;;11.07;;
31004;SDS011;17676;52.254;4.490;2024-02-21T07:25:39;16.83;;;11.57;;
31004;SDS011;17676;52.254;4.490;2024-02-21T07:28:06;14.70;;;10.82;;
31004;SDS011;17676;52.254;4.490;2024-02-21T07:30:33;17.55;;;10.48;;
31004;SDS011;17676;52.254;4.490;2024-02-21T07:33:00;14.63;;;10.45;;
31004;SDS011;17676;52.254;4.490;2024-02-21T07:35:27;15.13;;;11.70;;
31004;SDS011;17676;52.254;4.490;2024-02-21T07:37:53;13.73;;;10.88;;
31004;SDS011;17676;52.254;4.490;2024-02-21T07:40:20;15.60;;;11.95;;
31004;SDS011;17676;52.254;4.490;2024-02-21T07:42:47;20.55;;;12.75;;
31004;SDS011;17676;52.254;4.490;2024-02-21T07:45:17;18.67;;;13.35;;
31004;SDS011;17676;52.254;4.490;2024-02-21T07:47:45;16.50;;;12.52;;
31004;SDS011;17676;52.254;4.490;2024-02-21T07:50:12;21.45;;;13.18;;
31004;SDS011;17676;52.254;4.490;2024-02-21T07:52:39;20.13;;;13.73;;
31004;SDS011;17676;52.254;4.490;2024-02-21T07:55:05;15.70;;;13.82;;
31004;SDS011;17676;52.254;4.490;2024-02-21T07:57:32;19.58;;;14.18;;
31004;SDS011;17676;52.254;4.490;2024-02-21T07:59:59;19.88;;;15.77;;
31004;SDS011;17676;52.254;4.490;2024-02-21T08:02:26;19.98;;;15.40;;
31004;SDS011;17676;52.254;4.490;2024-02-21T08:04:52;24.25;;;15.27;;
31004;SDS011;17676;52.254;4.490;2024-02-21T08:07:19;17.42;;;14.18;;
31004;SDS011;17676;52.254;4.490;2024-02-21T08:09:46;16.33;;;14.05;;
31004;SDS011;17676;52.254;4.490;2024-02-21T08:12:12;17.13;;;13.50;;
31004;SDS011;17676;52.254;4.490;2024-02-21T08:14:39;18.67;;;13.95;;
31004;SDS011;17676;52.254;4.490;2024-02-21T08:17:06;17.48;;;13.45;;
31004;SDS011;17676;52.254;4.490;2024-02-21T08:19:32;17.20;;;13.52;;
31004;SDS011;17676;52.254;4.490;2024-02-21T08:22:00;20.33;;;14.73;;
31004;SDS011;17676;52.254;4.490;2024-02-21T08:24:26;17.08;;;14.23;;
31004;SDS011;17676;52.254;4.490;2024-02-21T08:26:53;19.63;;;14.25;;
31004;SDS011;17676;52.254;4.490;2024-02-21T08:29:20;18.15;;;13.40;;
31004;SDS011;17676;52.254;4.490;2024-02-21T08:31:46;17.50;;;12.85;;
31004;SDS011;17676;52.254;4.490;2024-02-21T08:34:13;19.10;;;14.02;;
31004;SDS011;17676;52.254;4.490;2024-02-21T08:36:40;19.02;;;13.43;;
31004;SDS011;17676;52.254;4.490;2024-02-21T08:39:07;21.55;;;12.30;;
31004;SDS011;17676;52.254;4.490;2024-02-21T08:41:36;15.95;;;11.63;;
31004;SDS011;17676;52.254;4.490;2024-02-21T08:44:24;17.17;;;11.73;;
31004;SDS011;17676;52.254;4.490;2024-02-21T08:46:54;16.83;;;11.43;;
31004;SDS011;17676;52.254;4.490;2024-02-21T08:49:22;13.85;;;11.70;;
31004;SDS011;17676;52.254;4.490;2024-02-21T08:51:49;14.77;;;11.13;;
31004;SDS011;17676;52.254;4.490;2024-02-21T08:54:16;15.05;;;10.57;;
31004;SDS011;17676;52.254;4.490;2024-02-21T08:56:43;15.88;;;10.52;;
31004;SDS011;17676;52.254;4.490;2024-02-21T08:59:09;16.35;;;11.82;;
31004;SDS011;17676;52.254;4.490;2024-02-21T09:01:36;12.10;;;10.75;;
31004;SDS011;17676;52.254;4.490;2024-02-21T09:04:04;15.73;;;12.00;;
31004;SDS011;17676;52.254;4.490;2024-02-21T09:06:31;21.10;;;12.20;;
31004;SDS011;17676;52.254;4.490;2024-02-21T09:08:59;14.10;;;12.25;;
31004;SDS011;17676;52.254;4.490;2024-02-21T09:11:26;15.45;;;13.30;;
31004;SDS011;17676;52.254;4.490;2024-02-21T09:13:54;17.27;;;14.25;;
31004;SDS011;17676;52.254;4.490;2024-02-21T09:16:21;17.25;;;14.05;;
31004;SDS011;17676;52.254;4.490;2024-02-21T09:18:50;17.42;;;14.82;;
31004;SDS011;17676;52.254;4.490;2024-02-21T09:21:16;18.33;;;14.75;;
31004;SDS011;17676;52.254;4.490;2024-02-21T09:23:43;19.65;;;14.80;;
31004;SDS011;17676;52.254;4.490;2024-02-21T09:26:11;17.20;;;14.90;;
31004;SDS011;17676;52.254;4.490;2024-02-21T09:28:42;16.92;;;13.35;;
31004;SDS011;17676;52.254;4.490;2024-02-21T09:31:10;17.30;;;15.45;;
31004;SDS011;17676;52.254;4.490;2024-02-21T09:33:37;16.85;;;15.07;;
31004;SDS011;17676;52.254;4.490;2024-02-21T09:36:06;17.42;;;14.52;;
31004;SDS011;17676;52.254;4.490;2024-02-21T09:38:33;17.15;;;13.07;;
31004;SDS011;17676;52.254;4.490;2024-02-21T09:41:04;16.33;;;13.43;;
31004;SDS011;17676;52.254;4.490;2024-02-21T09:43:34;16.95;;;13.68;;
31004;SDS011;17676;52.254;4.490;2024-02-21T09:46:05;15.18;;;13.52;;
31004;SDS011;17676;52.254;4.490;2024-02-21T09:48:55;18.05;;;13.45;;
31004;SDS011;17676;52.254;4.490;2024-02-21T09:51:30;17.45;;;12.43;;
31004;SDS011;17676;52.254;4.490;2024-02-21T09:54:00;17.40;;;12.13;;
31004;SDS011;17676;52.254;4.490;2024-02-21T09:56:41;14.77;;;11.27;;
31004;SDS011;17676;52.254;4.490;2024-02-21T09:59:08;11.75;;;10.57;;
31004;SDS011;17676;52.254;4.490;2024-02-21T10:01:37;14.98;;;11.43;;
31004;SDS011;17676;52.254;4.490;2024-02-21T10:04:04;16.15;;;11.25;;
31004;SDS011;17676;52.254;4.490;2024-02-21T10:06:31;12.45;;;10.98;;
31004;SDS011;17676;52.254;4.490;2024-02-21T10:08:59;14.68;;;11.48;;
31004;SDS011;17676;52.254;4.490;2024-02-21T10:11:26;11.95;;;10.80;;
31004;SDS011;17676;52.254;4.490;2024-02-21T10:14:03;14.88;;;11.02;;
31004;SDS011;17676;52.254;4.490;2024-02-21T10:16:31;14.25;;;11.15;;
31004;SDS011;17676;52.254;4.490;2024-02-21T10:19:00;13.38;;;10.32;;
31004;SDS011;17676;52.254;4.490;2024-02-21T10:21:27;11.10;;;9.98;;
31004;SDS011;17676;52.254;4.490;2024-02-21T10:23:54;14.63;;;10.80;;
31004;SDS011;17676;52.254;4.490;2024-02-21T10:26:21;12.88;;;9.88;;
31004;SDS011;17676;52.254;4.490;2024-02-21T10:28:48;11.80;;;10.45;;
31004;SDS011;17676;52.254;4.490;2024-02-21T10:31:25;12.95;;;11.07;;
31004;SDS011;17676;52.254;4.490;2024-02-21T10:34:00;12.57;;;9.88;;
31004;SDS011;17676;52.254;4.490;2024-02-21T10:36:30;13.00;;;9.98;;
31004;SDS011;17676;52.254;4.490;2024-02-21T10:38:56;11.57;;;10.35;;
31004;SDS011;17676;52.254;4.490;2024-02-21T10:41:24;11.57;;;10.38;;
31004;SDS011;17676;52.254;4.490;2024-02-21T10:43:52;11.82;;;10.50;;
31004;SDS011;17676;52.254;4.490;2024-02-21T10:46:22;14.10;;;10.23;;
31004;SDS011;17676;52.254;4.490;2024-02-21T10:48:59;12.80;;;10.10;;
31004;SDS011;17676;52.254;4.490;2024-02-21T10:51:33;14.80;;;10.80;;
31004;SDS011;17676;52.254;4.490;2024-02-21T10:54:22;14.25;;;11.80;;
31004;SDS011;17676;52.254;4.490;2024-02-21T10:57:01;15.73;;;12.30;;
31004;SDS011;17676;52.254;4.490;2024-02-21T10:59:30;14.75;;;13.25;;
31004;SDS011;17676;52.254;4.490;2024-02-21T11:01:58;14.35;;;12.95;;
31004;SDS011;17676;52.254;4.490;2024-02-21T11:04:28;15.93;;;12.82;;
31004;SDS011;17676;52.254;4.490;2024-02-21T11:06:57;14.38;;;12.95;;
31004;SDS011;17676;52.254;4.490;2024-02-21T11:09:30;14.93;;;13.73;;
31004;SDS011;17676;52.254;4.490;2024-02-21T11:12:03;14.98;;;13.23;;
31004;SDS011;17676;52.254;4.490;2024-02-21T11:14:33;14.75;;;13.20;;
31004;SDS011;17676;52.254;4.490;2024-02-21T11:17:13;13.90;;;12.48;;
31004;SDS011;17676;52.254;4.490;2024-02-21T11:19:44;13.90;;;12.57;;
31004;SDS011;17676;52.254;4.490;2024-02-21T11:22:18;16.08;;;13.23;;
31004;SDS011;17676;52.254;4.490;2024-02-21T11:24:46;14.45;;;13.05;;
31004;SDS011;17676;52.254;4.490;2024-02-21T11:27:18;14.02;;;12.52;;
31004;SDS011;17676;52.254;4.490;2024-02-21T11:29:47;13.75;;;12.18;;
31004;SDS011;17676;52.254;4.490;2024-02-21T11:32:32;13.13;;;11.90;;
31004;SDS011;17676;52.254;4.490;2024-02-21T11:34:59;12.20;;;11.10;;
31004;SDS011;17676;52.254;4.490;2024-02-21T11:37:32;11.77;;;10.57;;
31004;SDS011;17676;52.254;4.490;2024-02-21T11:40:00;12.02;;;10.68;;
31004;SDS011;17676;52.254;4.490;2024-02-21T11:42:30;11.70;;;10.50;;
31004;SDS011;17676;52.254;4.490;2024-02-21T11:44:57;12.52;;;11.20;;
31004;SDS011;17676;52.254;4.490;2024-02-21T11:47:24;11.60;;;10.48;;
31004;SDS011;17676;52.254;4.490;2024-02-21T11:49:51;11.00;;;9.90;;
31004;SDS011;17676;52.254;4.490;2024-02-21T11:52:21;13.43;;;10.98;;
31004;SDS011;17676;52.254;4.490;2024-02-21T11:54:51;11.05;;;10.05;;
31004;SDS011;17676;52.254;4.490;2024-02-21T11:57:24;11.13;;;10.13;;
31004;SDS011;17676;52.254;4.490;2024-02-21T11:59:53;11.48;;;10.38;;
31004;SDS011;17676;52.254;4.490;2024-02-21T12:02:26;12.02;;;10.23;;
31004;SDS011;17676;52.254;4.490;2024-02-21T12:04:53;10.30;;;9.30;;
31004;SDS011;17676;52.254;4.490;2024-02-21T12:07:21;9.50;;;7.75;;
31004;SDS011;17676;52.254;4.490;2024-02-21T12:09:50;9.60;;;8.70;;
31004;SDS011;17676;52.254;4.490;2024-02-21T12:12:19;9.52;;;8.68;;
31004;SDS011;17676;52.254;4.490;2024-02-21T12:14:46;8.77;;;7.97;;
31004;SDS011;17676;52.254;4.490;2024-02-21T12:17:20;9.05;;;8.10;;
31004;SDS011;17676;52.254;4.490;2024-02-21T12:19:46;8.48;;;7.57;;
31004;SDS011;17676;52.254;4.490;2024-02-21T12:22:17;9.35;;;7.88;;
31004;SDS011;17676;52.254;4.490;2024-02-21T12:24:44;8.00;;;7.18;;
31004;SDS011;17676;52.254;4.490;2024-02-21T12:27:14;7.07;;;6.47;;
31004;SDS011;17676;52.254;4.490;2024-02-21T12:29:41;8.00;;;6.72;;
31004;SDS011;17676;52.254;4.490;2024-02-21T12:32:07;8.05;;;6.95;;
31004;SDS011;17676;52.254;4.490;2024-02-21T12:34:34;6.90;;;6.25;;
31004;SDS011;17676;52.254;4.490;2024-02-21T12:37:18;6.85;;;6.15;;
31004;SDS011;17676;52.254;4.490;2024-02-21T12:39:46;8.07;;;5.65;;
31004;SDS011;17676;52.254;4.490;2024-02-21T12:42:13;6.97;;;6.22;;
31004;SDS011;17676;52.254;4.490;2024-02-21T12:44:40;6.47;;;5.90;;
31004;SDS011;17676;52.254;4.490;2024-02-21T12:47:07;7.38;;;5.57;;
31004;SDS011;17676;52.254;4.490;2024-02-21T12:49:34;9.68;;;5.90;;
31004;SDS011;17676;52.254;4.490;2024-02-21T12:52:01;7.40;;;5.20;;
31004;SDS011;17676;52.254;4.490;2024-02-21T12:54:30;6.30;;;4.85;;
31004;SDS011;17676;52.254;4.490;2024-02-21T12:56:57;5.78;;;4.65;;
31004;SDS011;17676;52.254;4.490;2024-02-21T12:59:29;8.23;;;5.75;;
31004;SDS011;17676;52.254;4.490;2024-02-21T13:01:56;7.18;;;5.85;;
31004;SDS011;17676;52.254;4.490;2024-02-21T13:04:23;6.43;;;5.80;;
31004;SDS011;17676;52.254;4.490;2024-02-21T13:06:50;6.30;;;5.60;;
31004;SDS011;17676;52.254;4.490;2024-02-21T13:09:16;9.40;;;6.40;;
31004;SDS011;17676;52.254;4.490;2024-02-21T13:11:44;8.55;;;6.28;;
31004;SDS011;17676;52.254;4.490;2024-02-21T13:14:12;9.35;;;6.40;;
31004;SDS011;17676;52.254;4.490;2024-02-21T13:16:39;6.75;;;6.05;;
31004;SDS011;17676;52.254;4.490;2024-02-21T13:19:07;8.07;;;6.45;;
31004;SDS011;17676;52.254;4.490;2024-02-21T13:21:37;7.03;;;6.30;;
31004;SDS011;17676;52.254;4.490;2024-02-21T13:24:04;10.05;;;6.35;;
31004;SDS011;17676;52.254;4.490;2024-02-21T13:26:31;7.55;;;6.05;;
31004;SDS011;17676;52.254;4.490;2024-02-21T13:28:57;6.57;;;5.95;;
31004;SDS011;17676;52.254;4.490;2024-02-21T13:31:24;7.95;;;5.75;;
31004;SDS011;17676;52.254;4.490;2024-02-21T13:33:52;5.95;;;5.25;;
31004;SDS011;17676;52.254;4.490;2024-02-21T13:36:19;8.48;;;6.60;;
31004;SDS011;17676;52.254;4.490;2024-02-21T13:38:46;10.70;;;7.20;;
31004;SDS011;17676;52.254;4.490;2024-02-21T13:41:13;11.05;;;7.00;;
31004;SDS011;17676;52.254;4.490;2024-02-21T13:43:40;8.95;;;7.25;;
31004;SDS011;17676;52.254;4.490;2024-02-21T13:46:07;9.23;;;8.00;;
31004;SDS011;17676;52.254;4.490;2024-02-21T13:48:36;9.60;;;8.65;;
31004;SDS011;17676;52.254;4.490;2024-02-21T13:51:03;11.50;;;8.77;;
31004;SDS011;17676;52.254;4.490;2024-02-21T13:53:30;11.15;;;8.93;;
31004;SDS011;17676;52.254;4.490;2024-02-21T13:55:57;11.45;;;9.57;;
31004;SDS011;17676;52.254;4.490;2024-02-21T13:58:24;11.98;;;10.85;;
31004;SDS011;17676;52.254;4.490;2024-02-21T14:00:53;14.07;;;10.90;;
31004;SDS011;17676;52.254;4.490;2024-02-21T14:03:20;11.32;;;10.20;;
31004;SDS011;17676;52.254;4.490;2024-02-21T14:05:47;12.77;;;11.45;;
31004;SDS011;17676;52.254;4.490;2024-02-21T14:08:15;13.70;;;11.80;;
31004;SDS011;17676;52.254;4.490;2024-02-21T14:10:42;13.70;;;12.40;;
31004;SDS011;17676;52.254;4.490;2024-02-21T14:13:08;16.80;;;14.77;;
31004;SDS011;17676;52.254;4.490;2024-02-21T14:15:35;18.08;;;16.35;;
31004;SDS011;17676;52.254;4.490;2024-02-21T14:18:03;19.30;;;17.35;;
31004;SDS011;17676;52.254;4.490;2024-02-21T14:20:34;17.20;;;14.13;;
31004;SDS011;17676;52.254;4.490;2024-02-21T14:23:01;14.43;;;12.85;;
31004;SDS011;17676;52.254;4.490;2024-02-21T14:25:27;13.40;;;12.00;;
31004;SDS011;17676;52.254;4.490;2024-02-21T14:27:54;13.65;;;11.55;;
31004;SDS011;17676;52.254;4.490;2024-02-21T14:30:21;16.45;;;12.30;;
31004;SDS011;17676;52.254;4.490;2024-02-21T14:32:47;15.68;;;11.45;;
31004;SDS011;17676;52.254;4.490;2024-02-21T14:35:14;16.13;;;12.15;;